sensor_id;sensor_type;location;lat;lon;timestamp;temperature;humidity
3528;DHT22;1778;47.966;7.854;2022-07-06T00:01:01;16.70;99.90
3528;DHT22;1778;47.966;7.854;2022-07-06T00:02:03;16.70;99.90
3528;DHT22;1778;47.966;7.854;2022-07-06T00:03:05;16.70;99.90
3528;DHT22;1778;47.966;7.854;2022-07-06T00:04:06;16.70;99.90
3528;DHT22;1778;47.966;7.854;2022-07-06T00:05:08;16.60;99.90
3528;DHT22;1778;47.966;7.854;2022-07-06T00:06:10;16.60;99.90
3528;DHT22;1778;47.966;7.854;2022-07-06T00:07:12;16.60;99.90
3528;DHT22;1778;47.966;7.854;2022-07-06T00:08:15;16.60;99.90
3528;DHT22;1778;47.966;7.854;2022-07-06T00:09:16;16.60;99.90
3528;DHT22;1778;47.966;7.854;2022-07-06T00:10:18;16.60;99.90
3528;DHT22;1778;47.966;7.854;2022-07-06T00:11:20;16.60;99.90
3528;DHT22;1778;47.966;7.854;2022-07-06T00:12:21;16.60;99.90
3528;DHT22;1778;47.966;7.854;2022-07-06T00:13:23;16.60;99.90
3528;DHT22;1778;47.966;7.854;2022-07-06T00:14:24;16.50;99.90
3528;DHT22;1778;47.966;7.854;2022-07-06T00:15:26;16.50;99.90
3528;DHT22;1778;47.966;7.854;2022-07-06T00:16:28;16.50;99.90
3528;DHT22;1778;47.966;7.854;2022-07-06T00:17:30;16.50;99.90
3528;DHT22;1778;47.966;7.854;2022-07-06T00:18:31;16.50;99.90
3528;DHT22;1778;47.966;7.854;2022-07-06T00:19:33;16.50;99.90
3528;DHT22;1778;47.966;7.854;2022-07-06T00:20:35;16.50;99.90
3528;DHT22;1778;47.966;7.854;2022-07-06T00:21:36;16.40;99.90
3528;DHT22;1778;47.966;7.854;2022-07-06T00:22:38;16.40;99.90
3528;DHT22;1778;47.966;7.854;2022-07-06T00:23:40;16.40;99.90
3528;DHT22;1778;47.966;7.854;2022-07-06T00:24:42;16.50;99.90
3528;DHT22;1778;47.966;7.854;2022-07-06T00:25:44;16.50;99.90
3528;DHT22;1778;47.966;7.854;2022-07-06T00:26:46;16.50;99.90
3528;DHT22;1778;47.966;7.854;2022-07-06T00:27:48;16.30;99.90
3528;DHT22;1778;47.966;7.854;2022-07-06T00:28:49;16.30;99.90
3528;DHT22;1778;47.966;7.854;2022-07-06T00:29:51;16.30;99.90
3528;DHT22;1778;47.966;7.854;2022-07-06T00:30:53;16.30;99.90
3528;DHT22;1778;47.966;7.854;2022-07-06T00:31:55;16.40;99.90
3528;DHT22;1778;47.966;7.854;2022-07-06T00:32:57;16.30;99.90
3528;DHT22;1778;47.966;7.854;2022-07-06T00:33:59;16.30;99.90
3528;DHT22;1778;47.966;7.854;2022-07-06T00:35:01;16.20;99.90
3528;DHT22;1778;47.966;7.854;2022-07-06T00:36:03;16.30;99.90
3528;DHT22;1778;47.966;7.854;2022-07-06T00:37:05;16.30;99.90
3528;DHT22;1778;47.966;7.854;2022-07-06T00:38:07;16.30;99.90
3528;DHT22;1778;47.966;7.854;2022-07-06T00:39:08;16.30;99.90
3528;DHT22;1778;47.966;7.854;2022-07-06T00:40:10;16.30;99.90
3528;DHT22;1778;47.966;7.854;2022-07-06T00:41:13;16.30;99.90
3528;DHT22;1778;47.966;7.854;2022-07-06T00:42:15;16.20;99.90
3528;DHT22;1778;47.966;7.854;2022-07-06T00:43:17;16.20;99.90
3528;DHT22;1778;47.966;7.854;2022-07-06T00:44:19;16.20;99.90
3528;DHT22;1778;47.966;7.854;2022-07-06T00:45:22;16.20;99.90
3528;DHT22;1778;47.966;7.854;2022-07-06T00:46:28;16.20;99.90
3528;DHT22;1778;47.966;7.854;2022-07-06T00:47:32;16.30;99.90
3528;DHT22;1778;47.966;7.854;2022-07-06T00:48:34;16.20;99.90
3528;DHT22;1778;47.966;7.854;2022-07-06T00:49:35;16.20;99.90
3528;DHT22;1778;47.966;7.854;2022-07-06T00:50:56;16.20;99.90
3528;DHT22;1778;47.966;7.854;2022-07-06T00:51:57;16.20;99.90
3528;DHT22;1778;47.966;7.854;2022-07-06T00:53:02;16.20;99.90
3528;DHT22;1778;47.966;7.854;2022-07-06T00:54:04;16.20;99.90
3528;DHT22;1778;47.966;7.854;2022-07-06T00:55:07;16.20;99.90
3528;DHT22;1778;47.966;7.854;2022-07-06T00:56:10;16.20;99.90
3528;DHT22;1778;47.966;7.854;2022-07-06T00:57:12;16.20;99.90
3528;DHT22;1778;47.966;7.854;2022-07-06T00:58:13;16.20;99.90
3528;DHT22;1778;47.966;7.854;2022-07-06T00:59:15;16.20;99.90
3528;DHT22;1778;47.966;7.854;2022-07-06T01:00:21;16.20;99.90
3528;DHT22;1778;47.966;7.854;2022-07-06T01:01:23;16.10;99.90
3528;DHT22;1778;47.966;7.854;2022-07-06T01:02:24;16.10;99.90
3528;DHT22;1778;47.966;7.854;2022-07-06T01:03:26;16.00;99.90
3528;DHT22;1778;47.966;7.854;2022-07-06T01:04:28;16.00;99.90
3528;DHT22;1778;47.966;7.854;2022-07-06T01:05:30;16.00;99.90
3528;DHT22;1778;47.966;7.854;2022-07-06T01:06:31;16.00;99.90
3528;DHT22;1778;47.966;7.854;2022-07-06T01:07:33;15.90;99.90
3528;DHT22;1778;47.966;7.854;2022-07-06T01:08:35;15.90;99.90
3528;DHT22;1778;47.966;7.854;2022-07-06T01:09:37;15.80;99.90
3528;DHT22;1778;47.966;7.854;2022-07-06T01:10:38;15.80;99.90
3528;DHT22;1778;47.966;7.854;2022-07-06T01:11:41;15.90;99.90
3528;DHT22;1778;47.966;7.854;2022-07-06T01:12:44;15.90;99.90
3528;DHT22;1778;47.966;7.854;2022-07-06T01:13:47;15.80;99.90
3528;DHT22;1778;47.966;7.854;2022-07-06T01:14:50;15.80;99.90
3528;DHT22;1778;47.966;7.854;2022-07-06T01:15:51;15.80;99.90
3528;DHT22;1778;47.966;7.854;2022-07-06T01:16:54;15.80;99.90
3528;DHT22;1778;47.966;7.854;2022-07-06T01:17:55;15.70;99.90
3528;DHT22;1778;47.966;7.854;2022-07-06T01:19:03;15.80;99.90
3528;DHT22;1778;47.966;7.854;2022-07-06T01:20:24;15.80;99.90
3528;DHT22;1778;47.966;7.854;2022-07-06T01:21:26;15.80;99.90
3528;DHT22;1778;47.966;7.854;2022-07-06T01:22:28;15.80;99.90
3528;DHT22;1778;47.966;7.854;2022-07-06T01:23:30;15.70;99.90
3528;DHT22;1778;47.966;7.854;2022-07-06T01:24:32;15.70;99.90
3528;DHT22;1778;47.966;7.854;2022-07-06T01:25:36;15.70;99.90
3528;DHT22;1778;47.966;7.854;2022-07-06T01:26:38;15.60;99.90
3528;DHT22;1778;47.966;7.854;2022-07-06T01:27:41;15.60;99.90
3528;DHT22;1778;47.966;7.854;2022-07-06T01:28:43;15.60;99.90
3528;DHT22;1778;47.966;7.854;2022-07-06T01:29:45;15.60;99.90
3528;DHT22;1778;47.966;7.854;2022-07-06T01:30:46;15.60;99.90
3528;DHT22;1778;47.966;7.854;2022-07-06T01:31:50;15.60;99.90
3528;DHT22;1778;47.966;7.854;2022-07-06T01:32:53;15.60;99.90
3528;DHT22;1778;47.966;7.854;2022-07-06T01:33:56;15.60;99.90
3528;DHT22;1778;47.966;7.854;2022-07-06T01:34:58;15.60;99.90
3528;DHT22;1778;47.966;7.854;2022-07-06T01:36:00;15.60;99.90
3528;DHT22;1778;47.966;7.854;2022-07-06T01:37:02;15.60;99.90
3528;DHT22;1778;47.966;7.854;2022-07-06T01:38:04;15.60;99.90
3528;DHT22;1778;47.966;7.854;2022-07-06T01:39:08;15.60;99.90
3528;DHT22;1778;47.966;7.854;2022-07-06T01:40:12;15.60;99.90
3528;DHT22;1778;47.966;7.854;2022-07-06T01:41:13;15.50;99.90
3528;DHT22;1778;47.966;7.854;2022-07-06T01:42:15;15.50;99.90
3528;DHT22;1778;47.966;7.854;2022-07-06T01:43:16;15.50;99.90
3528;DHT22;1778;47.966;7.854;2022-07-06T01:44:18;15.50;99.90
3528;DHT22;1778;47.966;7.854;2022-07-06T01:45:19;15.50;99.90
3528;DHT22;1778;47.966;7.854;2022-07-06T01:46:21;15.40;99.90
3528;DHT22;1778;47.966;7.854;2022-07-06T01:47:23;15.40;99.90
3528;DHT22;1778;47.966;7.854;2022-07-06T01:48:25;15.40;99.90
3528;DHT22;1778;47.966;7.854;2022-07-06T01:49:27;15.30;99.90
3528;DHT22;1778;47.966;7.854;2022-07-06T01:50:28;15.30;99.90
3528;DHT22;1778;47.966;7.854;2022-07-06T01:51:30;15.30;99.90
3528;DHT22;1778;47.966;7.854;2022-07-06T01:52:33;15.40;99.90
3528;DHT22;1778;47.966;7.854;2022-07-06T01:53:36;15.40;99.90
3528;DHT22;1778;47.966;7.854;2022-07-06T01:54:39;15.40;99.90
3528;DHT22;1778;47.966;7.854;2022-07-06T01:55:41;15.30;99.90
3528;DHT22;1778;47.966;7.854;2022-07-06T01:56:43;15.20;99.90
3528;DHT22;1778;47.966;7.854;2022-07-06T01:57:45;15.30;99.90
3528;DHT22;1778;47.966;7.854;2022-07-06T01:58:47;15.30;99.90
3528;DHT22;1778;47.966;7.854;2022-07-06T01:59:49;15.20;99.90
3528;DHT22;1778;47.966;7.854;2022-07-06T02:00:52;15.20;99.90
3528;DHT22;1778;47.966;7.854;2022-07-06T02:01:53;15.20;99.90
3528;DHT22;1778;47.966;7.854;2022-07-06T02:02:56;15.20;99.90
3528;DHT22;1778;47.966;7.854;2022-07-06T02:03:57;15.20;99.90
3528;DHT22;1778;47.966;7.854;2022-07-06T02:05:01;15.20;99.90
3528;DHT22;1778;47.966;7.854;2022-07-06T02:06:03;15.20;99.90
3528;DHT22;1778;47.966;7.854;2022-07-06T02:07:05;15.20;99.90
3528;DHT22;1778;47.966;7.854;2022-07-06T02:08:07;15.20;99.90
3528;DHT22;1778;47.966;7.854;2022-07-06T02:09:08;15.10;99.90
3528;DHT22;1778;47.966;7.854;2022-07-06T02:10:10;15.10;99.90
3528;DHT22;1778;47.966;7.854;2022-07-06T02:11:12;15.00;99.90
3528;DHT22;1778;47.966;7.854;2022-07-06T02:12:15;15.10;99.90
3528;DHT22;1778;47.966;7.854;2022-07-06T02:13:17;15.20;99.90
3528;DHT22;1778;47.966;7.854;2022-07-06T02:14:18;15.30;99.90
3528;DHT22;1778;47.966;7.854;2022-07-06T02:15:21;15.20;99.90
3528;DHT22;1778;47.966;7.854;2022-07-06T02:16:23;15.20;99.90
3528;DHT22;1778;47.966;7.854;2022-07-06T02:17:25;15.20;99.90
3528;DHT22;1778;47.966;7.854;2022-07-06T02:18:27;15.10;99.90
3528;DHT22;1778;47.966;7.854;2022-07-06T02:19:30;15.10;99.90
3528;DHT22;1778;47.966;7.854;2022-07-06T02:20:32;15.10;99.90
3528;DHT22;1778;47.966;7.854;2022-07-06T02:21:33;15.10;99.90
3528;DHT22;1778;47.966;7.854;2022-07-06T02:22:35;15.10;99.90
3528;DHT22;1778;47.966;7.854;2022-07-06T02:23:37;15.10;99.90
3528;DHT22;1778;47.966;7.854;2022-07-06T02:24:38;15.10;99.90
3528;DHT22;1778;47.966;7.854;2022-07-06T02:25:40;15.00;99.90
3528;DHT22;1778;47.966;7.854;2022-07-06T02:26:42;15.00;99.90
3528;DHT22;1778;47.966;7.854;2022-07-06T02:27:43;14.90;99.90
3528;DHT22;1778;47.966;7.854;2022-07-06T02:28:46;15.00;99.90
3528;DHT22;1778;47.966;7.854;2022-07-06T02:29:49;14.90;99.90
3528;DHT22;1778;47.966;7.854;2022-07-06T02:30:51;14.90;99.90
3528;DHT22;1778;47.966;7.854;2022-07-06T02:31:52;14.90;99.90
3528;DHT22;1778;47.966;7.854;2022-07-06T02:32:54;14.90;99.90
3528;DHT22;1778;47.966;7.854;2022-07-06T02:33:57;14.90;99.90
3528;DHT22;1778;47.966;7.854;2022-07-06T02:34:58;14.80;99.90
3528;DHT22;1778;47.966;7.854;2022-07-06T02:36:00;14.80;99.90
3528;DHT22;1778;47.966;7.854;2022-07-06T02:37:02;14.80;99.90
3528;DHT22;1778;47.966;7.854;2022-07-06T02:38:04;14.90;99.90
3528;DHT22;1778;47.966;7.854;2022-07-06T02:39:06;14.80;99.90
3528;DHT22;1778;47.966;7.854;2022-07-06T02:40:09;14.80;99.90
3528;DHT22;1778;47.966;7.854;2022-07-06T02:41:11;14.80;99.90
3528;DHT22;1778;47.966;7.854;2022-07-06T02:42:13;14.80;99.90
3528;DHT22;1778;47.966;7.854;2022-07-06T02:43:15;14.80;99.90
3528;DHT22;1778;47.966;7.854;2022-07-06T02:44:18;14.80;99.90
3528;DHT22;1778;47.966;7.854;2022-07-06T02:45:19;14.70;99.90
3528;DHT22;1778;47.966;7.854;2022-07-06T02:46:21;14.80;99.90
3528;DHT22;1778;47.966;7.854;2022-07-06T02:47:22;14.80;99.90
3528;DHT22;1778;47.966;7.854;2022-07-06T02:48:25;14.80;99.90
3528;DHT22;1778;47.966;7.854;2022-07-06T02:49:28;14.80;99.90
3528;DHT22;1778;47.966;7.854;2022-07-06T02:50:30;14.80;99.90
3528;DHT22;1778;47.966;7.854;2022-07-06T02:51:32;14.80;99.90
3528;DHT22;1778;47.966;7.854;2022-07-06T02:52:34;14.70;99.90
3528;DHT22;1778;47.966;7.854;2022-07-06T02:53:42;14.70;99.90
3528;DHT22;1778;47.966;7.854;2022-07-06T02:54:43;14.70;99.90
3528;DHT22;1778;47.966;7.854;2022-07-06T02:55:45;14.70;99.90
3528;DHT22;1778;47.966;7.854;2022-07-06T02:56:47;14.70;99.90
3528;DHT22;1778;47.966;7.854;2022-07-06T02:57:54;14.70;99.90
3528;DHT22;1778;47.966;7.854;2022-07-06T02:58:57;14.60;99.90
3528;DHT22;1778;47.966;7.854;2022-07-06T02:59:58;14.60;99.90
3528;DHT22;1778;47.966;7.854;2022-07-06T03:01:00;14.60;99.90
3528;DHT22;1778;47.966;7.854;2022-07-06T03:02:03;14.60;99.90
3528;DHT22;1778;47.966;7.854;2022-07-06T03:03:05;14.60;99.90
3528;DHT22;1778;47.966;7.854;2022-07-06T03:04:07;14.60;99.90
3528;DHT22;1778;47.966;7.854;2022-07-06T03:05:09;14.60;99.90
3528;DHT22;1778;47.966;7.854;2022-07-06T03:06:11;14.50;99.90
3528;DHT22;1778;47.966;7.854;2022-07-06T03:07:14;14.50;99.90
3528;DHT22;1778;47.966;7.854;2022-07-06T03:08:15;14.40;99.90
3528;DHT22;1778;47.966;7.854;2022-07-06T03:09:17;14.40;99.90
3528;DHT22;1778;47.966;7.854;2022-07-06T03:10:19;14.40;99.90
3528;DHT22;1778;47.966;7.854;2022-07-06T03:11:20;14.30;99.90
3528;DHT22;1778;47.966;7.854;2022-07-06T03:12:22;14.40;99.90
3528;DHT22;1778;47.966;7.854;2022-07-06T03:13:24;14.30;99.90
3528;DHT22;1778;47.966;7.854;2022-07-06T03:14:25;14.30;99.90
3528;DHT22;1778;47.966;7.854;2022-07-06T03:15:28;14.30;99.90
3528;DHT22;1778;47.966;7.854;2022-07-06T03:16:30;14.30;99.90
3528;DHT22;1778;47.966;7.854;2022-07-06T03:17:32;14.30;99.90
3528;DHT22;1778;47.966;7.854;2022-07-06T03:18:34;14.30;99.90
3528;DHT22;1778;47.966;7.854;2022-07-06T03:19:36;14.30;99.90
3528;DHT22;1778;47.966;7.854;2022-07-06T03:20:38;14.20;99.90
3528;DHT22;1778;47.966;7.854;2022-07-06T03:21:43;14.20;99.90
3528;DHT22;1778;47.966;7.854;2022-07-06T03:22:45;14.30;99.90
3528;DHT22;1778;47.966;7.854;2022-07-06T03:23:48;14.30;99.90
3528;DHT22;1778;47.966;7.854;2022-07-06T03:24:50;14.30;99.90
3528;DHT22;1778;47.966;7.854;2022-07-06T03:25:52;14.30;99.90
3528;DHT22;1778;47.966;7.854;2022-07-06T03:26:53;14.40;99.90
3528;DHT22;1778;47.966;7.854;2022-07-06T03:27:55;14.30;99.90
3528;DHT22;1778;47.966;7.854;2022-07-06T03:28:57;14.30;99.90
3528;DHT22;1778;47.966;7.854;2022-07-06T03:29:58;14.30;99.90
3528;DHT22;1778;47.966;7.854;2022-07-06T03:31:00;14.30;99.90
3528;DHT22;1778;47.966;7.854;2022-07-06T03:32:02;14.30;99.90
3528;DHT22;1778;47.966;7.854;2022-07-06T03:33:05;14.30;99.90
3528;DHT22;1778;47.966;7.854;2022-07-06T03:34:07;14.20;99.90
3528;DHT22;1778;47.966;7.854;2022-07-06T03:35:09;14.20;99.90
3528;DHT22;1778;47.966;7.854;2022-07-06T03:36:11;14.20;99.90
3528;DHT22;1778;47.966;7.854;2022-07-06T03:37:13;14.20;99.90
3528;DHT22;1778;47.966;7.854;2022-07-06T03:38:16;14.20;99.90
3528;DHT22;1778;47.966;7.854;2022-07-06T03:39:18;14.20;99.90
3528;DHT22;1778;47.966;7.854;2022-07-06T03:40:20;14.20;99.90
3528;DHT22;1778;47.966;7.854;2022-07-06T03:41:23;14.20;99.90
3528;DHT22;1778;47.966;7.854;2022-07-06T03:42:25;14.20;99.90
3528;DHT22;1778;47.966;7.854;2022-07-06T03:43:27;14.20;99.90
3528;DHT22;1778;47.966;7.854;2022-07-06T03:44:28;14.20;99.90
3528;DHT22;1778;47.966;7.854;2022-07-06T03:45:30;14.10;99.90
3528;DHT22;1778;47.966;7.854;2022-07-06T03:46:33;14.20;99.90
3528;DHT22;1778;47.966;7.854;2022-07-06T03:47:35;14.10;99.90
3528;DHT22;1778;47.966;7.854;2022-07-06T03:48:37;14.00;99.90
3528;DHT22;1778;47.966;7.854;2022-07-06T03:49:40;14.00;99.90
3528;DHT22;1778;47.966;7.854;2022-07-06T03:50:43;14.00;99.90
3528;DHT22;1778;47.966;7.854;2022-07-06T03:51:45;14.10;99.90
3528;DHT22;1778;47.966;7.854;2022-07-06T03:52:47;14.10;99.90
3528;DHT22;1778;47.966;7.854;2022-07-06T03:53:50;14.00;99.90
3528;DHT22;1778;47.966;7.854;2022-07-06T03:54:52;14.10;99.90
3528;DHT22;1778;47.966;7.854;2022-07-06T03:55:58;14.00;99.90
3528;DHT22;1778;47.966;7.854;2022-07-06T03:57:19;14.00;99.90
3528;DHT22;1778;47.966;7.854;2022-07-06T03:58:23;14.10;99.90
3528;DHT22;1778;47.966;7.854;2022-07-06T03:59:26;14.00;99.90
3528;DHT22;1778;47.966;7.854;2022-07-06T04:00:28;14.00;99.90
3528;DHT22;1778;47.966;7.854;2022-07-06T04:01:35;14.00;99.90
3528;DHT22;1778;47.966;7.854;2022-07-06T04:02:38;14.00;99.90
3528;DHT22;1778;47.966;7.854;2022-07-06T04:03:40;14.00;99.90
3528;DHT22;1778;47.966;7.854;2022-07-06T04:04:42;14.00;99.90
3528;DHT22;1778;47.966;7.854;2022-07-06T04:05:45;14.00;99.90
3528;DHT22;1778;47.966;7.854;2022-07-06T04:06:46;14.00;99.90
3528;DHT22;1778;47.966;7.854;2022-07-06T04:07:49;13.90;99.90
3528;DHT22;1778;47.966;7.854;2022-07-06T04:08:51;13.90;99.90
3528;DHT22;1778;47.966;7.854;2022-07-06T04:09:53;13.90;99.90
3528;DHT22;1778;47.966;7.854;2022-07-06T04:10:55;13.90;99.90
3528;DHT22;1778;47.966;7.854;2022-07-06T04:11:57;13.90;99.90
3528;DHT22;1778;47.966;7.854;2022-07-06T04:12:59;14.00;99.90
3528;DHT22;1778;47.966;7.854;2022-07-06T04:14:01;14.00;99.90
3528;DHT22;1778;47.966;7.854;2022-07-06T04:15:03;14.10;99.90
3528;DHT22;1778;47.966;7.854;2022-07-06T04:16:06;14.00;99.90
3528;DHT22;1778;47.966;7.854;2022-07-06T04:17:08;14.00;99.90
3528;DHT22;1778;47.966;7.854;2022-07-06T04:18:28;14.00;99.90
3528;DHT22;1778;47.966;7.854;2022-07-06T04:19:31;14.00;99.90
3528;DHT22;1778;47.966;7.854;2022-07-06T04:20:33;14.00;99.90
3528;DHT22;1778;47.966;7.854;2022-07-06T04:21:35;14.00;99.90
3528;DHT22;1778;47.966;7.854;2022-07-06T04:22:38;14.10;99.90
3528;DHT22;1778;47.966;7.854;2022-07-06T04:23:40;14.10;99.90
3528;DHT22;1778;47.966;7.854;2022-07-06T04:24:44;14.00;99.90
3528;DHT22;1778;47.966;7.854;2022-07-06T04:25:46;14.00;99.90
3528;DHT22;1778;47.966;7.854;2022-07-06T04:26:48;14.10;99.90
3528;DHT22;1778;47.966;7.854;2022-07-06T04:27:50;14.10;99.90
3528;DHT22;1778;47.966;7.854;2022-07-06T04:28:52;14.20;99.90
3528;DHT22;1778;47.966;7.854;2022-07-06T04:29:54;14.20;99.90
3528;DHT22;1778;47.966;7.854;2022-07-06T04:30:56;14.30;99.90
3528;DHT22;1778;47.966;7.854;2022-07-06T04:31:59;14.40;99.90
3528;DHT22;1778;47.966;7.854;2022-07-06T04:33:00;14.40;99.90
3528;DHT22;1778;47.966;7.854;2022-07-06T04:34:05;14.40;99.90
3528;DHT22;1778;47.966;7.854;2022-07-06T04:35:07;14.30;99.90
3528;DHT22;1778;47.966;7.854;2022-07-06T04:36:10;14.30;99.90
3528;DHT22;1778;47.966;7.854;2022-07-06T04:37:16;14.30;99.90
3528;DHT22;1778;47.966;7.854;2022-07-06T04:38:18;14.30;99.90
3528;DHT22;1778;47.966;7.854;2022-07-06T04:39:22;14.30;99.90
3528;DHT22;1778;47.966;7.854;2022-07-06T04:40:24;14.30;99.90
3528;DHT22;1778;47.966;7.854;2022-07-06T04:41:30;14.30;99.90
3528;DHT22;1778;47.966;7.854;2022-07-06T04:42:32;14.40;99.90
3528;DHT22;1778;47.966;7.854;2022-07-06T04:43:33;14.50;99.90
3528;DHT22;1778;47.966;7.854;2022-07-06T04:44:35;14.60;99.90
3528;DHT22;1778;47.966;7.854;2022-07-06T04:45:37;14.60;99.90
3528;DHT22;1778;47.966;7.854;2022-07-06T04:46:39;14.60;99.90
3528;DHT22;1778;47.966;7.854;2022-07-06T04:47:41;14.60;99.90
3528;DHT22;1778;47.966;7.854;2022-07-06T04:48:42;14.50;99.90
3528;DHT22;1778;47.966;7.854;2022-07-06T04:49:49;14.50;99.90
3528;DHT22;1778;47.966;7.854;2022-07-06T04:50:51;14.50;99.90
3528;DHT22;1778;47.966;7.854;2022-07-06T04:51:58;14.50;99.90
3528;DHT22;1778;47.966;7.854;2022-07-06T04:53:01;14.50;99.90
3528;DHT22;1778;47.966;7.854;2022-07-06T04:54:05;14.50;99.90
3528;DHT22;1778;47.966;7.854;2022-07-06T04:55:08;14.60;99.90
3528;DHT22;1778;47.966;7.854;2022-07-06T04:56:11;14.50;99.90
3528;DHT22;1778;47.966;7.854;2022-07-06T04:57:14;14.60;99.90
3528;DHT22;1778;47.966;7.854;2022-07-06T04:58:16;14.70;99.90
3528;DHT22;1778;47.966;7.854;2022-07-06T04:59:20;14.60;99.90
3528;DHT22;1778;47.966;7.854;2022-07-06T05:00:22;14.50;99.90
3528;DHT22;1778;47.966;7.854;2022-07-06T05:01:24;14.50;99.90
3528;DHT22;1778;47.966;7.854;2022-07-06T05:02:26;14.50;99.90
3528;DHT22;1778;47.966;7.854;2022-07-06T05:03:27;14.50;99.90
3528;DHT22;1778;47.966;7.854;2022-07-06T05:04:29;14.60;99.90
3528;DHT22;1778;47.966;7.854;2022-07-06T05:05:31;14.60;99.90
3528;DHT22;1778;47.966;7.854;2022-07-06T05:06:33;14.60;99.90
3528;DHT22;1778;47.966;7.854;2022-07-06T05:07:35;14.50;99.90
3528;DHT22;1778;47.966;7.854;2022-07-06T05:08:41;14.50;99.90
3528;DHT22;1778;47.966;7.854;2022-07-06T05:09:42;14.50;99.90
3528;DHT22;1778;47.966;7.854;2022-07-06T05:10:52;14.60;99.90
3528;DHT22;1778;47.966;7.854;2022-07-06T05:11:55;14.70;99.90
3528;DHT22;1778;47.966;7.854;2022-07-06T05:12:57;14.80;99.90
3528;DHT22;1778;47.966;7.854;2022-07-06T05:14:01;14.80;99.90
3528;DHT22;1778;47.966;7.854;2022-07-06T05:15:03;14.90;99.90
3528;DHT22;1778;47.966;7.854;2022-07-06T05:16:05;14.90;99.90
3528;DHT22;1778;47.966;7.854;2022-07-06T05:17:06;14.90;99.90
3528;DHT22;1778;47.966;7.854;2022-07-06T05:18:08;15.00;99.90
3528;DHT22;1778;47.966;7.854;2022-07-06T05:19:10;15.00;99.90
3528;DHT22;1778;47.966;7.854;2022-07-06T05:20:11;15.10;99.90
3528;DHT22;1778;47.966;7.854;2022-07-06T05:21:16;15.10;99.90
3528;DHT22;1778;47.966;7.854;2022-07-06T05:22:18;15.10;99.90
3528;DHT22;1778;47.966;7.854;2022-07-06T05:23:20;15.20;99.90
3528;DHT22;1778;47.966;7.854;2022-07-06T05:24:21;15.30;99.90
3528;DHT22;1778;47.966;7.854;2022-07-06T05:25:23;15.40;99.90
3528;DHT22;1778;47.966;7.854;2022-07-06T05:26:25;15.30;99.90
3528;DHT22;1778;47.966;7.854;2022-07-06T05:27:28;15.40;99.90
3528;DHT22;1778;47.966;7.854;2022-07-06T05:28:30;15.40;99.90
3528;DHT22;1778;47.966;7.854;2022-07-06T05:29:39;15.40;99.90
3528;DHT22;1778;47.966;7.854;2022-07-06T05:30:41;15.50;99.90
3528;DHT22;1778;47.966;7.854;2022-07-06T05:31:44;15.50;99.90
3528;DHT22;1778;47.966;7.854;2022-07-06T05:32:46;15.50;99.90
3528;DHT22;1778;47.966;7.854;2022-07-06T05:33:48;15.50;99.90
3528;DHT22;1778;47.966;7.854;2022-07-06T05:34:50;15.40;99.90
3528;DHT22;1778;47.966;7.854;2022-07-06T05:35:53;15.50;99.90
3528;DHT22;1778;47.966;7.854;2022-07-06T05:36:59;15.50;99.90
3528;DHT22;1778;47.966;7.854;2022-07-06T05:38:02;15.50;99.90
3528;DHT22;1778;47.966;7.854;2022-07-06T05:39:04;15.50;99.90
3528;DHT22;1778;47.966;7.854;2022-07-06T05:40:06;15.60;99.90
3528;DHT22;1778;47.966;7.854;2022-07-06T05:41:07;15.80;99.90
3528;DHT22;1778;47.966;7.854;2022-07-06T05:42:09;15.70;99.90
3528;DHT22;1778;47.966;7.854;2022-07-06T05:43:12;15.70;99.90
3528;DHT22;1778;47.966;7.854;2022-07-06T05:44:14;15.80;99.90
3528;DHT22;1778;47.966;7.854;2022-07-06T05:45:15;15.90;99.90
3528;DHT22;1778;47.966;7.854;2022-07-06T05:46:17;16.00;99.90
3528;DHT22;1778;47.966;7.854;2022-07-06T05:47:19;16.00;99.90
3528;DHT22;1778;47.966;7.854;2022-07-06T05:48:40;15.90;99.90
3528;DHT22;1778;47.966;7.854;2022-07-06T05:50:00;16.00;99.90
3528;DHT22;1778;47.966;7.854;2022-07-06T05:51:19;15.80;99.90
3528;DHT22;1778;47.966;7.854;2022-07-06T05:52:21;15.90;99.90
3528;DHT22;1778;47.966;7.854;2022-07-06T05:53:23;15.90;99.90
3528;DHT22;1778;47.966;7.854;2022-07-06T05:54:27;15.80;99.90
3528;DHT22;1778;47.966;7.854;2022-07-06T05:55:29;15.90;99.90
3528;DHT22;1778;47.966;7.854;2022-07-06T05:56:33;15.90;99.90
3528;DHT22;1778;47.966;7.854;2022-07-06T05:57:35;15.90;99.90
3528;DHT22;1778;47.966;7.854;2022-07-06T05:58:37;16.10;99.90
3528;DHT22;1778;47.966;7.854;2022-07-06T05:59:38;16.00;99.90
3528;DHT22;1778;47.966;7.854;2022-07-06T06:00:40;16.00;99.90
3528;DHT22;1778;47.966;7.854;2022-07-06T06:01:47;16.00;99.90
3528;DHT22;1778;47.966;7.854;2022-07-06T06:02:54;16.00;99.90
3528;DHT22;1778;47.966;7.854;2022-07-06T06:03:56;16.10;99.90
3528;DHT22;1778;47.966;7.854;2022-07-06T06:04:57;16.20;99.90
3528;DHT22;1778;47.966;7.854;2022-07-06T06:05:59;16.20;99.90
3528;DHT22;1778;47.966;7.854;2022-07-06T06:07:02;16.20;99.90
3528;DHT22;1778;47.966;7.854;2022-07-06T06:08:04;16.20;99.90
3528;DHT22;1778;47.966;7.854;2022-07-06T06:09:07;16.20;99.90
3528;DHT22;1778;47.966;7.854;2022-07-06T06:10:11;16.30;99.90
3528;DHT22;1778;47.966;7.854;2022-07-06T06:11:13;16.30;99.90
3528;DHT22;1778;47.966;7.854;2022-07-06T06:12:15;16.50;99.90
3528;DHT22;1778;47.966;7.854;2022-07-06T06:13:17;16.50;99.90
3528;DHT22;1778;47.966;7.854;2022-07-06T06:14:18;16.60;99.90
3528;DHT22;1778;47.966;7.854;2022-07-06T06:15:21;16.70;99.90
3528;DHT22;1778;47.966;7.854;2022-07-06T06:16:22;16.70;99.90
3528;DHT22;1778;47.966;7.854;2022-07-06T06:17:24;16.80;99.90
3528;DHT22;1778;47.966;7.854;2022-07-06T06:18:26;16.70;99.90
3528;DHT22;1778;47.966;7.854;2022-07-06T06:19:29;16.80;99.90
3528;DHT22;1778;47.966;7.854;2022-07-06T06:20:32;16.80;99.90
3528;DHT22;1778;47.966;7.854;2022-07-06T06:21:33;16.90;99.90
3528;DHT22;1778;47.966;7.854;2022-07-06T06:22:51;17.00;99.90
3528;DHT22;1778;47.966;7.854;2022-07-06T06:23:53;17.10;99.90
3528;DHT22;1778;47.966;7.854;2022-07-06T06:24:55;17.10;99.90
3528;DHT22;1778;47.966;7.854;2022-07-06T06:25:56;17.10;99.90
3528;DHT22;1778;47.966;7.854;2022-07-06T06:26:58;17.20;99.90
3528;DHT22;1778;47.966;7.854;2022-07-06T06:28:05;17.30;99.90
3528;DHT22;1778;47.966;7.854;2022-07-06T06:29:07;17.30;99.90
3528;DHT22;1778;47.966;7.854;2022-07-06T06:30:09;17.40;99.90
3528;DHT22;1778;47.966;7.854;2022-07-06T06:31:11;17.40;99.90
3528;DHT22;1778;47.966;7.854;2022-07-06T06:32:14;17.50;99.90
3528;DHT22;1778;47.966;7.854;2022-07-06T06:33:19;17.50;99.90
3528;DHT22;1778;47.966;7.854;2022-07-06T06:34:21;17.50;99.90
3528;DHT22;1778;47.966;7.854;2022-07-06T06:35:22;17.60;99.90
3528;DHT22;1778;47.966;7.854;2022-07-06T06:36:24;17.60;99.90
3528;DHT22;1778;47.966;7.854;2022-07-06T06:37:26;17.70;99.90
3528;DHT22;1778;47.966;7.854;2022-07-06T06:38:27;17.70;99.90
3528;DHT22;1778;47.966;7.854;2022-07-06T06:39:31;17.70;99.90
3528;DHT22;1778;47.966;7.854;2022-07-06T06:40:32;17.80;99.90
3528;DHT22;1778;47.966;7.854;2022-07-06T06:41:34;17.80;99.90
3528;DHT22;1778;47.966;7.854;2022-07-06T06:42:36;17.90;99.90
3528;DHT22;1778;47.966;7.854;2022-07-06T06:43:42;17.90;99.90
3528;DHT22;1778;47.966;7.854;2022-07-06T06:44:51;18.00;99.90
3528;DHT22;1778;47.966;7.854;2022-07-06T06:45:53;17.90;99.90
3528;DHT22;1778;47.966;7.854;2022-07-06T06:46:55;18.00;99.90
3528;DHT22;1778;47.966;7.854;2022-07-06T06:47:56;17.90;99.90
3528;DHT22;1778;47.966;7.854;2022-07-06T06:48:58;18.00;99.90
3528;DHT22;1778;47.966;7.854;2022-07-06T06:50:00;18.00;99.90